Terminal Aerodrome Forecast
Issued by NWS Sioux Falls, SD

Home | Current Version | Previous Version | Graphics & Text | Print | Product List | Glossary On
Versions: 1 2 3 4 5 6 7 8 9 10 11 12 13 14 15 16 17 18
391
FTUS43 KFSD 141120
TAFHON
TAF
KHON 141120Z 1412/1512 29005KT P6SM OVC035
     FM141400 30005KT P6SM VCSH OVC010
     FM141900 32012KT P6SM OVC015
     FM142100 33014KT P6SM OVC035
     FM150100 30009KT P6SM BKN035
     FM150800 26007KT P6SM BKN045=

USA.gov is the U.S. government's official web portal to all federal, state and local government web resources and services.